x

South Santa Rosa Is. Ca (46069) Wave Buoy

2:50pm - Thu 25th Aug 2016 All times are PDT. -7 hours from GMT.

  • Sig Wave height 3.6ft
  • Swell Direction
  • Peak Period 16s
  • Average Period 5s
  • Wind
    18mph, 20mph gusts
  • Sea Temp 64°f
  • 空気 Temp 60°f
  • Sea Pressure 1013.6mb
  • South Santa Rosa Is. Ca
  • South Santa Rosa Is. Ca

More Historic Weather Station data

Upgrade to MSW Pro to gain access to the past 30 days of data for over 8000 Wavebouys and Weather Stations around the globe.

Join Pro

Comparision Forecast

View Surf forecast
   
Thu 08/25 2:50pm 3.5ft 16s 5s 18 20 mph 1013.6mb 64f 60f
1:50pm 4ft 16s 5s 18 22 mph 1014.2mb 64f 60f
12:50pm 4ft 15s 5s 16 18 mph 1014.8mb 64f 60f
11:50am 4ft 5s 5s 16 18 mph 1015.1mb 64f 60f
10:50am 4ft 15s 6s 16 18 mph 1015.4mb 63f 59f
9:50am 4ft 6s 5s 16 18 mph 1015.3mb 63f 59f
8:50am 4.5ft 15s 5s 16 20 mph 1015.3mb 63f 59f
7:50am 4.5ft 6s 5s 16 18 mph 1015.1mb 63f 59f
6:50am 5ft 6s 5s 18 22 mph 1014.7mb 62f 59f
5:50am 5ft 6s 5s 18 22 mph 1014.2mb 62f 59f
4:50am 5ft 6s 5s 20 22 mph 1014mb 62f 59f
3:50am 4.5ft 6s 5s 20 25 mph 1014mb 62f 58f
2:50am 5ft 6s 5s 22 27 mph 1014mb 62f 59f
1:50am 6ft 6s 5s 22 27 mph 1014.3mb 62f 59f
12:50am 5.5ft 6s 5s 22 27 mph 1014.4mb 62f 59f
Wed 08/24 11:50pm 6ft 6s 5s 25 29 mph 1014.6mb 62f 59f
10:50pm 6ft 6s 5s 25 31 mph 1014.9mb 62f 59f
9:50pm 6ft 7s 6s 22 29 mph 1015.1mb 62f 60f
7:50pm 6ft 6s 5s 27 31 mph 1014.3mb 62f 60f
6:50pm 6ft 6s 5s 25 29 mph 1014.6mb 62f 60f
5:50pm 6ft 7s 5s 27 31 mph 1014.5mb 62f 60f
4:50pm 6ft 6s 5s 27 31 mph 1014.7mb 62f 60f
3:50pm 5.5ft 6s 5s 25 29 mph 1015.5mb 62f 60f
2:50pm 6ft 6s 5s 25 29 mph 1016.1mb 62f 60f
1:50pm 5.5ft 6s 5s 25 31 mph 1016.6mb 62f 60f
12:50pm 6ft 6s 5s 25 29 mph 1017.3mb 62f 60f
11:50am 6ft 6s 5s 25 29 mph 1017.9mb 62f 60f
10:50am 6ft 7s 6s 25 31 mph 1017.9mb 62f 60f
9:50am 6ft 7s  -  27 31 mph 1017.9mb 62f 59f
8:50am 6ft 7s 5s 27 29 mph 1017.8mb 62f 59f
7:50am 6.5ft 7s 5s 22 27 mph 1017.9mb 62f 60f
6:50am 6ft 6s 5s 25 29 mph 1017.4mb 62f 60f
5:50am 6ft 7s 5s 25 29 mph 1016.7mb 62f 60f
4:50am 7ft 6s 5s 25 29 mph 1016.5mb 62f 60f
2:50am 6ft 6s 5s 25 29 mph 1016.4mb 63f 60f
1:50am 6.5ft 6s 5s 27 29 mph 1016.6mb 63f 60f
12:50am 6ft 5s 5s 25 29 mph 1017mb 63f 60f
Tue 08/23 11:50pm 6ft 6s 5s 25 29 mph 1017.1mb 63f 60f
10:50pm 6ft 6s 5s 27 31 mph 1017.3mb 62f 60f
9:50pm 6ft 6s 5s 25 29 mph 1017.4mb 62f 60f
8:50pm 5.5ft 6s 5s 25 29 mph 1017.1mb 62f 61f
7:50pm 5.5ft 6s 5s 27 29 mph 1016.6mb 62f 61f
6:50pm 5ft 6s 5s 27 29 mph 1016.4mb 63f 61f
5:50pm 5ft 6s 5s 27 31 mph 1016.5mb 63f 61f
4:50pm 5ft 13s 5s 25 29 mph 1016.7mb 63f 61f
3:50pm 5ft 6s 5s 22 27 mph 1017.2mb 63f 61f
2:50pm 4.5ft 5s 5s 22 27 mph 1017.6mb 64f 61f
1:50pm 5ft 6s 5s 22 25 mph 1018mb 64f 61f
12:50pm 5ft 6s 5s 22 27 mph 1018.2mb 64f 61f
11:50am 5.5ft 14s 5s 22 25 mph 1018.3mb 64f 61f
10:50am 5.5ft 6s 5s 22 27 mph 1018mb 64f 60f
9:50am 5.5ft 6s 5s 22 27 mph 1017.5mb 63f 60f
8:50am 5.5ft 6s 5s 22 25 mph 1017.1mb 63f 60f
7:50am 5ft 6s 5s 22 27 mph 1016.3mb 63f 60f
6:50am 5ft 14s 5s 20 22 mph 1015.6mb 62f 60f
5:50am 5.5ft 6s 6s 20 22 mph 1014.7mb 62f 60f
4:50am 5ft 6s 5s 20 22 mph 1014.4mb 62f 60f
3:50am 5.5ft 6s 5s 20 25 mph 1014.3mb 63f 60f
2:50am 5.5ft 6s 5s 20 22 mph 1014.3mb 63f 61f
1:50am 6ft 6s 5s 22 27 mph 1014.3mb 63f 61f
12:50am 6ft 6s 5s 25 29 mph 1014.4mb 63f 61f
Mon 08/22 11:50pm 6ft 6s 5s 25 29 mph 1014.2mb 63f 61f
10:50pm 6ft 6s 5s 25 29 mph 1014.3mb 63f 61f
9:50pm 5ft 6s 5s 22 27 mph 1014.3mb 63f 61f
8:50pm 6ft 15s 5s 22 27 mph 1014mb 64f 62f
7:50pm 5ft 14s 5s 20 25 mph 1013.7mb 64f 62f
6:50pm 4.5ft 15s 5s 22 27 mph 1013.6mb 64f 62f
5:50pm 5ft 15s 5s 22 27 mph 1013.7mb 64f 62f
4:50pm 5ft 15s 5s 20 25 mph 1013.9mb 64f 62f
3:50pm 5ft 15s 5s 20 22 mph 1013.9mb 64f 62f
2:50pm 5ft 15s 5s 20 25 mph 1014mb 64f 62f
1:50pm 5ft 15s 6s 20 22 mph 1014mb 64f 62f
12:50pm 5ft 15s 6s 20 25 mph 1014.4mb 64f 61f
11:50am 6ft 6s 6s 20 25 mph 1014.3mb 64f 61f
10:50am 6ft 15s 6s 20 25 mph 1014.4mb 64f 61f
9:50am 6ft 15s 6s 20 25 mph 1014.1mb 64f 61f
8:50am 6ft 15s 6s 20 25 mph 1013.8mb 64f 61f
7:50am 6ft 15s 6s 20 25 mph 1013.5mb 64f 60f
6:50am 5.5ft 15s 6s 22 27 mph 1012.8mb 64f 61f
5:50am 6.5ft 16s 6s 20 27 mph 1012.4mb 64f 61f
4:50am 6.5ft 16s 6s 25 29 mph 1012.1mb 64f 60f
3:50am 7ft 6s 6s 25 29 mph 1012.1mb 64f 61f
2:50am 6ft 16s 6s 22 29 mph 1012.1mb 64f 61f
1:50am 6.5ft 16s 6s 25 27 mph 1012.1mb 64f 62f
12:50am 6.5ft 16s 6s 25 29 mph 1012.2mb 64f 62f
Sun 08/21 11:50pm 6ft 16s 6s 22 27 mph 1012.3mb 64f 62f
10:50pm 6ft 6s 6s 25 27 mph 1012.3mb 64f 62f